Etusivu
METAR-TAF:

METAR-TAF

Lentoasemat :

Tekamah Municipal Airport

Tekamah, Nebraska, Yhdysvallat

Leveyspiiri: 41-46-01N, Pituuspiiri: 096-10-40W, korkeus merenpinnasta: 313 m

Tämänhetkinen sää

Tämä raportti tehtiin 25 minuuttia sitten, kello 11.32 UTC
Tuuli 4 kn luoteesta
Lämpötila 0°C
Kosteus 100%
Ilmanpaine 1012 hPa
Näkyvyys: 0.8 km
tuntematon, sumua

METAR: KTQE 231132Z AUTO 31004KT 1/2SM UP FG VV003 00/00 A2988 RMK AO2 UPB30 P0000 T00000000

Aika: 05:57 (11:57 UTC)


TAF: puuttuu

Säähavainnot ja -ennusteet yli 4000 lentoasemalta (METAR- ja TAF-raportit).

Käytössä olevat sääasemat on merkitty karttaan keltaisilla ja punaisilla pisteillä.

Aseta hiiri pisteen päälle nähdäksesi sääaseman nimen.

Klikkaa sitten nähdäksesi säähavainnot ja -ennusteet.

Kartan vaihtaminen: klikkaa mustalla rastilla varustettuja vihreitä pisteitä, niin voit zoomata sisään; viivalla varustettua vihreää pistettä, niin voit zoomata ulos tai vihreitä nuolia, niin pääset viereisille kartoille.


METAR-TAF: